createdAt,value
2023-03-31T00:01:11.262Z,3.75
2023-03-31T00:03:43.959Z,3.78
2023-03-31T00:06:18.304Z,4.10
2023-03-31T00:08:52.026Z,4.20
2023-03-31T00:11:23.696Z,4.05
2023-03-31T00:13:51.946Z,3.67
2023-03-31T00:16:20.797Z,3.72
2023-03-31T00:18:51.143Z,3.33
2023-03-31T00:21:33.663Z,4.30
2023-03-31T00:24:04.086Z,4.20
2023-03-31T00:26:35.547Z,4.57
2023-03-31T00:29:05.187Z,4.03
2023-03-31T00:31:34.046Z,4.55
2023-03-31T00:34:02.379Z,4.05
2023-03-31T00:36:31.147Z,5.47
2023-03-31T00:39:00.848Z,4.75
2023-03-31T00:41:30.121Z,5.60
2023-03-31T00:44:09.381Z,4.30
2023-03-31T00:46:43.036Z,4.63
2023-03-31T00:49:20.903Z,4.57
2023-03-31T00:51:50.999Z,4.97
2023-03-31T00:54:21.536Z,4.25
2023-03-31T00:56:53.280Z,5.05
2023-03-31T00:59:27.971Z,4.75
2023-03-31T01:01:59.350Z,4.53
2023-03-31T01:04:28.436Z,4.25
2023-03-31T01:07:04.749Z,4.72
2023-03-31T01:09:35.844Z,5.18
2023-03-31T01:12:07.333Z,5.55
2023-03-31T01:14:37.395Z,5.60
2023-03-31T01:17:09.753Z,4.82
2023-03-31T01:19:53.620Z,4.95
2023-03-31T01:22:59.506Z,4.72
2023-03-31T01:26:24.759Z,5.53
2023-03-31T01:28:59.851Z,4.88
2023-03-31T01:32:21.951Z,4.88
2023-03-31T01:35:22.261Z,4.85
2023-03-31T01:38:20.850Z,5.10
2023-03-31T01:41:13.578Z,5.13
2023-03-31T01:43:48.308Z,5.18
2023-03-31T01:46:28.476Z,5.15
2023-03-31T01:49:08.768Z,4.97
2023-03-31T01:51:47.408Z,4.70
2023-03-31T01:54:22.477Z,5.50
2023-03-31T01:56:58.433Z,5.65
2023-03-31T01:59:30.830Z,5.00
2023-03-31T02:02:03.843Z,4.88
2023-03-31T02:04:39.442Z,5.50
2023-03-31T02:07:14.733Z,5.82
2023-03-31T02:09:47.894Z,5.07
2023-03-31T02:12:20.394Z,5.65
2023-03-31T02:14:51.677Z,5.10
2023-03-31T02:17:30.712Z,4.90
2023-03-31T02:20:02.161Z,5.72
2023-03-31T02:22:36.404Z,5.28
2023-03-31T02:25:07.859Z,5.30
2023-03-31T02:27:42.203Z,5.15
2023-03-31T02:30:12.855Z,5.40
2023-03-31T02:32:42.814Z,5.15
2023-03-31T02:35:14.354Z,5.00
2023-03-31T02:37:44.126Z,5.50
2023-03-31T02:40:17.675Z,5.65
2023-03-31T02:42:47.549Z,5.00
2023-03-31T02:45:38.676Z,4.15
2023-03-31T02:48:09.566Z,4.68
2023-03-31T02:51:01.919Z,4.68
2023-03-31T02:53:40.522Z,5.13
2023-03-31T02:56:26.322Z,4.70
2023-03-31T02:59:09.685Z,4.90
2023-03-31T03:01:51.813Z,4.80
2023-03-31T03:04:38.160Z,4.30
2023-03-31T03:07:13.948Z,5.07
2023-03-31T03:09:53.429Z,4.95
2023-03-31T03:12:26.259Z,4.88
2023-03-31T03:15:01.349Z,3.55
2023-03-31T03:17:34.564Z,4.95
2023-03-31T03:20:08.041Z,4.18
2023-03-31T03:22:37.272Z,4.18
2023-03-31T03:25:06.736Z,3.60
2023-03-31T03:27:35.964Z,3.67
2023-03-31T03:30:07.353Z,4.25
2023-03-31T03:32:36.048Z,3.78
2023-03-31T03:35:06.386Z,3.85
2023-03-31T03:37:35.101Z,4.40
2023-03-31T03:40:06.616Z,3.17
2023-03-31T03:42:35.332Z,3.28
2023-03-31T03:45:05.679Z,3.00
2023-03-31T03:47:34.306Z,3.50
2023-03-31T03:50:02.858Z,3.13
2023-03-31T03:52:31.093Z,3.20
2023-03-31T03:54:59.625Z,3.25
2023-03-31T03:57:27.831Z,2.65
2023-03-31T03:59:56.644Z,3.08
2023-03-31T04:02:28.713Z,3.55
2023-03-31T04:04:58.190Z,3.05
2023-03-31T04:07:27.083Z,2.53
2023-03-31T04:09:55.574Z,2.28
2023-03-31T04:12:23.787Z,2.63
2023-03-31T04:14:52.406Z,2.88
2023-03-31T04:17:32.796Z,2.78
2023-03-31T04:20:09.369Z,2.53
2023-03-31T04:22:40.526Z,2.38
2023-03-31T04:25:15.012Z,3.33
2023-03-31T04:27:46.832Z,3.35
2023-03-31T04:30:22.962Z,2.15
2023-03-31T04:32:53.255Z,2.63
2023-03-31T04:35:25.334Z,3.00
2023-03-31T04:37:59.113Z,3.05
2023-03-31T04:40:28.122Z,3.72
2023-03-31T04:42:56.366Z,3.22
2023-03-31T04:45:24.965Z,2.85
2023-03-31T04:47:53.439Z,3.03
2023-03-31T04:50:23.553Z,3.42
2023-03-31T04:52:51.872Z,2.92
2023-03-31T04:55:20.441Z,3.53
2023-03-31T04:57:49.234Z,3.20
2023-03-31T05:00:18.780Z,3.42
2023-03-31T05:02:47.406Z,3.70
2023-03-31T05:05:16.315Z,3.75
2023-03-31T05:07:46.252Z,3.75
2023-03-31T05:10:15.060Z,3.30
2023-03-31T05:12:43.308Z,3.72
2023-03-31T05:15:12.517Z,3.00
2023-03-31T05:17:40.844Z,3.45
2023-03-31T05:20:10.957Z,3.40
2023-03-31T05:22:42.486Z,3.88
2023-03-31T05:25:19.128Z,3.40
2023-03-31T05:27:48.264Z,3.58
2023-03-31T05:30:17.926Z,3.38
2023-03-31T05:32:46.272Z,3.15
2023-03-31T05:35:14.781Z,3.88
2023-03-31T05:37:43.038Z,3.42
2023-03-31T05:40:13.740Z,3.45
2023-03-31T05:42:42.041Z,2.90
2023-03-31T05:45:11.066Z,3.53
2023-03-31T05:47:39.688Z,3.60
2023-03-31T05:50:09.425Z,3.40
2023-03-31T05:52:37.968Z,3.60
2023-03-31T05:55:07.217Z,3.55
2023-03-31T05:57:36.739Z,3.65
2023-03-31T06:00:09.294Z,4.10
2023-03-31T06:02:37.931Z,3.85
2023-03-31T06:05:07.102Z,3.53
2023-03-31T06:07:35.886Z,3.22
2023-03-31T06:10:04.574Z,2.83
2023-03-31T06:12:34.038Z,3.78
2023-03-31T06:15:04.140Z,3.90
2023-03-31T06:17:32.479Z,2.78
2023-03-31T06:20:02.929Z,3.78
2023-03-31T06:22:34.099Z,3.88
2023-03-31T06:25:02.645Z,3.33
2023-03-31T06:27:30.975Z,2.92
2023-03-31T06:29:59.435Z,3.83
2023-03-31T06:32:29.012Z,3.58
2023-03-31T06:34:57.525Z,3.53
2023-03-31T06:37:25.783Z,3.08
2023-03-31T06:39:54.339Z,3.35
2023-03-31T06:42:22.529Z,3.05
2023-03-31T06:44:51.341Z,3.35
2023-03-31T06:47:19.617Z,2.85
2023-03-31T06:49:49.679Z,3.22
2023-03-31T06:52:18.017Z,2.97
2023-03-31T06:54:46.735Z,2.90
2023-03-31T06:57:14.972Z,2.95
2023-03-31T06:59:43.852Z,3.35
2023-03-31T07:02:12.409Z,2.83
2023-03-31T07:04:41.036Z,2.95
2023-03-31T07:07:11.107Z,3.47
2023-03-31T07:09:39.639Z,3.15
2023-03-31T07:12:07.905Z,2.70
2023-03-31T07:14:36.446Z,2.63
2023-03-31T07:17:04.922Z,2.63
2023-03-31T07:19:33.574Z,2.70
2023-03-31T07:22:01.832Z,3.38
2023-03-31T07:24:31.721Z,2.50
2023-03-31T07:26:59.939Z,3.05
2023-03-31T07:29:28.571Z,2.85
2023-03-31T07:31:56.958Z,2.40
2023-03-31T07:34:25.948Z,2.40
2023-03-31T07:36:56.491Z,2.90
2023-03-31T07:39:25.106Z,3.08
2023-03-31T07:41:54.742Z,2.88
2023-03-31T07:44:23.480Z,2.28
2023-03-31T07:46:51.807Z,2.88
2023-03-31T07:49:20.281Z,3.15
2023-03-31T07:51:48.435Z,2.70
2023-03-31T07:54:17.001Z,2.30
2023-03-31T07:56:45.404Z,2.33
2023-03-31T07:59:15.652Z,2.20
2023-03-31T08:01:43.931Z,2.65
2023-03-31T08:04:13.329Z,2.58
2023-03-31T08:06:41.713Z,2.50
2023-03-31T08:09:10.289Z,2.67
2023-03-31T08:11:38.628Z,2.05
2023-03-31T08:14:07.127Z,2.35
2023-03-31T08:16:36.970Z,2.30
2023-03-31T08:19:05.568Z,2.53
2023-03-31T08:21:33.906Z,2.42
2023-03-31T08:24:02.671Z,2.33
2023-03-31T08:26:31.959Z,2.22
2023-03-31T08:29:00.555Z,2.95
2023-03-31T08:31:30.006Z,1.95
2023-03-31T08:33:59.976Z,2.38
2023-03-31T08:36:28.402Z,2.30
2023-03-31T08:38:57.462Z,2.00
2023-03-31T08:41:37.399Z,1.83
2023-03-31T08:44:11.147Z,2.50
2023-03-31T08:46:41.064Z,2.60
2023-03-31T08:49:16.719Z,2.40
2023-03-31T08:51:49.345Z,1.92
2023-03-31T08:54:22.137Z,2.10
2023-03-31T08:56:52.312Z,2.10
2023-03-31T08:59:27.775Z,2.47
2023-03-31T09:02:03.025Z,2.00
2023-03-31T09:04:52.046Z,2.00
2023-03-31T09:07:30.022Z,2.30
2023-03-31T09:10:04.318Z,2.25
2023-03-31T09:12:41.242Z,2.05
2023-03-31T09:15:15.940Z,2.55
2023-03-31T09:17:46.977Z,2.03
2023-03-31T09:20:21.780Z,1.80
2023-03-31T09:22:53.419Z,2.90
2023-03-31T09:25:26.375Z,2.65
2023-03-31T09:27:59.080Z,2.65
2023-03-31T09:30:29.580Z,2.15
2023-03-31T09:33:12.217Z,2.45
2023-03-31T09:35:43.833Z,2.38
2023-03-31T09:38:15.925Z,2.17
2023-03-31T09:40:45.326Z,2.25
2023-03-31T09:43:22.815Z,2.13
2023-03-31T09:46:14.751Z,1.90
2023-03-31T09:48:45.566Z,2.38
2023-03-31T09:51:21.795Z,1.73
2023-03-31T09:53:55.170Z,2.25
2023-03-31T09:56:53.706Z,2.00
2023-03-31T09:59:24.183Z,1.80
2023-03-31T10:01:58.962Z,2.30
2023-03-31T10:04:31.851Z,2.50
2023-03-31T10:07:04.880Z,1.85
2023-03-31T10:09:35.417Z,2.10
2023-03-31T10:12:08.305Z,1.88
2023-03-31T10:14:42.611Z,2.50
2023-03-31T10:17:16.228Z,1.75
2023-03-31T10:19:51.165Z,1.75
2023-03-31T10:22:31.047Z,1.65
2023-03-31T10:25:11.671Z,2.03
2023-03-31T10:27:42.146Z,1.83
2023-03-31T10:30:14.231Z,1.83
2023-03-31T10:32:43.972Z,2.10
2023-03-31T10:35:27.132Z,2.40
2023-03-31T10:38:00.903Z,2.40
2023-03-31T10:40:32.095Z,2.67
2023-03-31T10:43:05.059Z,1.77
2023-03-31T10:45:39.499Z,2.13
2023-03-31T10:48:19.399Z,1.55
2023-03-31T10:50:49.225Z,1.95
2023-03-31T10:53:19.806Z,2.47
2023-03-31T10:56:10.973Z,1.92
2023-03-31T10:59:04.660Z,2.85
2023-03-31T11:01:45.853Z,1.70
2023-03-31T11:04:47.840Z,2.00
2023-03-31T11:07:29.580Z,2.33
2023-03-31T11:10:12.752Z,1.60
2023-03-31T11:12:50.529Z,2.08
2023-03-31T11:15:24.509Z,2.00
2023-03-31T11:18:04.916Z,1.80
2023-03-31T11:20:39.450Z,2.10
2023-03-31T11:23:16.513Z,1.88
2023-03-31T11:25:54.101Z,1.77
2023-03-31T11:28:36.202Z,1.80
2023-03-31T11:31:16.241Z,1.98
2023-03-31T11:33:58.397Z,1.38
2023-03-31T11:36:41.747Z,1.90
2023-03-31T11:39:30.384Z,1.95
2023-03-31T11:42:05.357Z,1.77
2023-03-31T11:44:41.706Z,1.65
2023-03-31T11:47:14.494Z,1.80
2023-03-31T11:49:48.103Z,1.35
2023-03-31T11:52:19.665Z,1.58
2023-03-31T11:54:54.161Z,2.13
2023-03-31T11:57:31.357Z,1.67
2023-03-31T12:00:05.077Z,1.67
2023-03-31T12:02:47.196Z,2.05
2023-03-31T12:05:17.082Z,2.05
2023-03-31T12:07:53.590Z,2.08
2023-03-31T12:10:23.303Z,2.00
2023-03-31T12:12:59.313Z,1.77
2023-03-31T12:15:33.692Z,1.90
2023-03-31T12:18:10.262Z,1.85
2023-03-31T12:20:42.613Z,1.58
2023-03-31T12:23:16.424Z,1.90
2023-03-31T12:25:52.041Z,1.95
2023-03-31T12:28:22.760Z,2.05
2023-03-31T12:30:53.827Z,1.35
2023-03-31T12:33:27.987Z,1.50
2023-03-31T12:36:14.388Z,1.80
2023-03-31T12:38:55.259Z,1.92
2023-03-31T12:41:31.484Z,1.85
2023-03-31T12:44:21.067Z,2.38
2023-03-31T12:47:24.909Z,2.20
2023-03-31T12:50:03.430Z,1.67
2023-03-31T12:52:41.541Z,1.30
2023-03-31T12:55:33.633Z,1.45
2023-03-31T12:58:39.680Z,1.65
2023-03-31T13:01:18.051Z,1.40
2023-03-31T13:03:55.883Z,1.45
2023-03-31T13:06:54.118Z,2.55
2023-03-31T13:09:52.248Z,2.05
2023-03-31T13:12:23.789Z,1.55
2023-03-31T13:14:54.570Z,1.88
2023-03-31T13:17:28.225Z,2.20
2023-03-31T13:19:58.537Z,1.45
2023-03-31T13:22:33.434Z,2.25
2023-03-31T13:25:50.521Z,1.85
2023-03-31T13:28:34.564Z,1.80
2023-03-31T13:31:05.341Z,2.00
2023-03-31T13:33:42.702Z,2.58
2023-03-31T13:36:56.742Z,2.20
2023-03-31T13:40:00.920Z,2.15
2023-03-31T13:42:52.676Z,2.30
2023-03-31T13:45:35.471Z,1.77
2023-03-31T13:48:18.812Z,2.03
2023-03-31T13:50:58.364Z,2.90
2023-03-31T13:53:55.215Z,2.05
2023-03-31T13:56:53.709Z,2.00
2023-03-31T13:59:55.812Z,2.42
2023-03-31T14:02:54.034Z,2.85
2023-03-31T14:05:29.517Z,2.00
2023-03-31T14:08:03.653Z,2.50
2023-03-31T14:10:34.632Z,1.90
2023-03-31T14:13:11.292Z,2.35
2023-03-31T14:15:43.240Z,2.40
2023-03-31T14:18:16.821Z,2.33
2023-03-31T14:21:08.332Z,2.13
2023-03-31T14:23:49.118Z,2.50
2023-03-31T14:26:31.095Z,2.13
2023-03-31T14:29:11.348Z,2.63
2023-03-31T14:31:46.251Z,2.45
2023-03-31T14:34:29.623Z,2.15
2023-03-31T14:37:01.679Z,2.08
2023-03-31T14:39:35.875Z,2.17
2023-03-31T14:42:06.777Z,2.15
2023-03-31T14:44:35.635Z,2.58
2023-03-31T14:47:04.263Z,2.78
2023-03-31T14:49:37.550Z,1.77
2023-03-31T14:52:16.312Z,1.80
2023-03-31T14:54:47.722Z,1.63
2023-03-31T14:57:20.606Z,1.98
2023-03-31T14:59:53.008Z,2.38
2023-03-31T15:02:32.574Z,2.00
2023-03-31T15:05:05.653Z,2.50
2023-03-31T15:07:34.096Z,2.50
2023-03-31T15:10:05.488Z,2.83
2023-03-31T15:12:34.323Z,1.92
2023-03-31T15:15:06.599Z,2.75
2023-03-31T15:17:40.183Z,2.58
2023-03-31T15:20:30.991Z,2.28
2023-03-31T15:23:01.443Z,1.90
2023-03-31T15:25:37.733Z,2.60
2023-03-31T15:28:08.771Z,2.42
2023-03-31T15:30:37.813Z,2.60
2023-03-31T15:33:18.840Z,2.40
2023-03-31T15:35:48.620Z,2.97
2023-03-31T15:38:18.892Z,2.00
2023-03-31T15:40:53.906Z,2.20
2023-03-31T15:43:30.052Z,2.20
2023-03-31T15:46:00.688Z,2.00
2023-03-31T15:48:33.342Z,1.58
2023-03-31T15:51:03.643Z,2.22
2023-03-31T15:53:36.982Z,1.85
2023-03-31T15:56:07.637Z,1.92
2023-03-31T15:58:56.316Z,1.83
2023-03-31T16:01:30.399Z,1.88
2023-03-31T16:03:58.970Z,1.70
2023-03-31T16:06:39.008Z,1.70
2023-03-31T16:09:09.178Z,2.10
2023-03-31T16:11:43.253Z,2.13
2023-03-31T16:14:17.613Z,2.33
2023-03-31T16:16:53.203Z,2.05
2023-03-31T16:19:25.081Z,1.58
2023-03-31T16:21:59.492Z,1.90
2023-03-31T16:24:32.023Z,1.73
2023-03-31T16:27:06.521Z,1.95
2023-03-31T16:29:37.146Z,1.98
2023-03-31T16:32:11.640Z,1.92
2023-03-31T16:34:57.034Z,2.50
2023-03-31T16:37:26.330Z,2.20
2023-03-31T16:39:54.696Z,1.63
2023-03-31T16:42:25.158Z,2.30
2023-03-31T16:47:35.128Z,1.88
2023-03-31T16:50:07.475Z,1.63
2023-03-31T16:52:37.182Z,2.47
2023-03-31T16:55:06.412Z,2.30
2023-03-31T16:57:36.465Z,2.10
2023-03-31T17:00:05.728Z,2.05
2023-03-31T17:02:34.484Z,2.05
2023-03-31T17:07:34.829Z,2.42
2023-03-31T17:10:03.092Z,2.05
2023-03-31T17:12:31.602Z,2.55
2023-03-31T17:15:01.468Z,2.60
2023-03-31T17:17:31.019Z,2.75
2023-03-31T17:19:59.810Z,3.03
2023-03-31T17:22:28.554Z,3.03
2023-03-31T17:24:58.528Z,2.70
2023-03-31T17:27:27.458Z,2.00
2023-03-31T17:29:56.070Z,2.13
2023-03-31T17:32:26.565Z,2.20
2023-03-31T17:34:54.981Z,2.55
2023-03-31T17:37:23.692Z,3.28
2023-03-31T17:39:52.728Z,3.10
2023-03-31T17:42:21.231Z,3.15
2023-03-31T17:44:51.685Z,3.08
2023-03-31T17:47:21.488Z,3.63
2023-03-31T17:49:51.070Z,3.92
2023-03-31T17:52:19.721Z,3.83
2023-03-31T17:54:50.294Z,4.20
2023-03-31T17:57:19.407Z,3.95
2023-03-31T17:59:48.708Z,4.43
2023-03-31T18:02:17.378Z,4.15
2023-03-31T18:04:45.869Z,4.25
2023-03-31T18:07:17.954Z,3.97
2023-03-31T18:09:46.394Z,4.85
2023-03-31T18:12:14.828Z,5.38
2023-03-31T18:14:43.209Z,4.82
2023-03-31T18:17:14.757Z,5.15
2023-03-31T18:19:43.470Z,5.82
2023-03-31T18:22:12.426Z,6.07
2023-03-31T18:24:41.945Z,5.95
2023-03-31T18:27:10.712Z,6.03
2023-03-31T18:29:39.816Z,7.15
2023-03-31T18:32:09.900Z,8.98
2023-03-31T18:34:38.351Z,10.10
2023-03-31T18:37:07.279Z,8.88
2023-03-31T18:39:35.684Z,8.13
2023-03-31T18:42:05.606Z,7.53
2023-03-31T18:44:35.697Z,7.10
2023-03-31T18:47:04.364Z,6.90
2023-03-31T18:49:33.013Z,6.05
2023-03-31T18:52:04.044Z,7.25
2023-03-31T18:54:32.577Z,7.35
2023-03-31T18:57:01.872Z,5.93
2023-03-31T18:59:31.698Z,6.38
2023-03-31T19:02:00.255Z,5.20
2023-03-31T19:04:30.100Z,5.53
2023-03-31T19:06:58.777Z,5.10
2023-03-31T19:09:28.143Z,5.72
2023-03-31T19:11:57.305Z,5.70
2023-03-31T19:14:25.763Z,5.65
2023-03-31T19:16:55.884Z,5.45
2023-03-31T19:19:24.555Z,5.13
2023-03-31T19:21:54.361Z,4.63
2023-03-31T19:24:24.185Z,5.15
2023-03-31T19:26:52.801Z,4.30
2023-03-31T19:29:21.031Z,4.20
2023-03-31T19:31:49.568Z,4.15
2023-03-31T19:34:19.137Z,5.65
2023-03-31T19:36:47.911Z,4.80
2023-03-31T19:39:16.825Z,5.07
2023-03-31T19:41:45.477Z,5.15
2023-03-31T19:44:13.965Z,5.38
2023-03-31T19:46:42.529Z,4.38
2023-03-31T19:49:10.758Z,4.93
2023-03-31T19:51:40.944Z,5.18
2023-03-31T19:54:11.375Z,5.07
2023-03-31T19:56:40.211Z,4.45
2023-03-31T19:59:08.848Z,4.28
2023-03-31T20:01:37.573Z,3.83
2023-03-31T20:04:06.224Z,4.28
2023-03-31T20:06:37.088Z,4.35
2023-03-31T20:09:07.108Z,5.22
2023-03-31T20:11:36.124Z,4.68
2023-03-31T20:14:05.200Z,4.65
2023-03-31T20:16:33.931Z,4.25
2023-03-31T20:19:05.093Z,5.25
2023-03-31T20:21:35.947Z,4.88
2023-03-31T20:24:06.753Z,5.45
2023-03-31T20:26:35.684Z,5.50
2023-03-31T20:29:04.578Z,5.60
2023-03-31T20:31:36.637Z,4.72
2023-03-31T20:34:06.137Z,5.43
2023-03-31T20:36:34.702Z,4.95
2023-03-31T20:39:05.640Z,4.70
2023-03-31T20:41:37.303Z,4.47
2023-03-31T20:44:07.410Z,3.70
2023-03-31T20:46:36.336Z,5.38
2023-03-31T20:49:07.068Z,4.55
2023-03-31T20:51:37.670Z,3.70
2023-03-31T20:54:07.632Z,4.43
2023-03-31T20:56:39.520Z,4.70
2023-03-31T20:59:09.144Z,4.35
2023-03-31T21:01:38.679Z,4.00
2023-03-31T21:04:09.709Z,4.47
2023-03-31T21:06:40.317Z,3.95
2023-03-31T21:09:08.837Z,4.18
2023-03-31T21:11:40.348Z,4.40
2023-03-31T21:14:08.641Z,3.40
2023-03-31T21:16:37.516Z,4.53
2023-03-31T21:19:05.744Z,3.40
2023-03-31T21:21:35.984Z,4.00
2023-03-31T21:24:04.404Z,3.70
2023-03-31T21:26:32.923Z,3.60
2023-03-31T21:29:02.502Z,3.90
2023-03-31T21:31:31.132Z,3.85
2023-03-31T21:34:01.310Z,4.05
2023-03-31T21:36:30.289Z,3.85
2023-03-31T21:38:58.515Z,4.05
2023-03-31T21:41:28.772Z,3.45
2023-03-31T21:44:00.435Z,4.30
2023-03-31T21:46:33.361Z,4.00
2023-03-31T21:49:02.542Z,3.53
2023-03-31T21:51:31.967Z,3.20
2023-03-31T21:54:00.512Z,3.13
2023-03-31T21:56:32.258Z,4.18
2023-03-31T21:59:01.511Z,3.42
2023-03-31T22:01:32.419Z,4.10
2023-03-31T22:04:01.024Z,3.85
2023-03-31T22:06:29.613Z,4.05
2023-03-31T22:08:57.842Z,3.33
2023-03-31T22:11:27.084Z,3.83
2023-03-31T22:13:55.370Z,4.28
2023-03-31T22:16:25.062Z,3.38
2023-03-31T22:18:55.601Z,3.72
2023-03-31T22:21:26.364Z,4.18
2023-03-31T22:23:55.514Z,3.67
2023-03-31T22:26:24.947Z,3.90
2023-03-31T22:28:53.218Z,3.40
2023-03-31T22:31:21.860Z,4.07
2023-03-31T22:33:50.448Z,3.70
2023-03-31T22:36:20.789Z,3.78
2023-03-31T22:38:49.386Z,3.13
2023-03-31T22:41:17.955Z,4.53
2023-03-31T22:43:46.460Z,4.22
2023-03-31T22:46:15.916Z,3.55
2023-03-31T22:48:44.242Z,3.60
2023-03-31T22:51:13.209Z,3.92
2023-03-31T22:53:42.789Z,4.70
2023-03-31T22:56:13.003Z,4.00
2023-03-31T22:58:41.325Z,3.42
2023-03-31T23:01:15.711Z,3.30
2023-03-31T23:03:45.058Z,3.78
2023-03-31T23:06:14.763Z,3.83
2023-03-31T23:08:45.325Z,3.85
2023-03-31T23:11:14.472Z,4.22
2023-03-31T23:13:42.647Z,3.63
2023-03-31T23:16:15.609Z,3.75
2023-03-31T23:18:46.157Z,4.32
2023-03-31T23:21:16.254Z,3.90
2023-03-31T23:23:45.927Z,3.70
2023-03-31T23:26:15.871Z,3.70
2023-03-31T23:28:45.583Z,4.07
2023-03-31T23:31:14.738Z,3.90
2023-03-31T23:33:42.963Z,4.07
2023-03-31T23:36:16.998Z,3.55
2023-03-31T23:38:48.040Z,3.70
2023-03-31T23:41:17.226Z,3.47
2023-03-31T23:43:45.827Z,3.53
2023-03-31T23:46:14.402Z,3.90
2023-03-31T23:48:43.649Z,3.30
2023-03-31T23:51:12.756Z,4.05
2023-03-31T23:53:41.178Z,3.88
2023-03-31T23:56:12.908Z,4.35
2023-03-31T23:58:43.041Z,4.03
